Tuesday, January 16, 2018, 5:10 PM GMT
Back to Local

CXDI, Delhi CS, Ont.

Location: , , Canada Lat: 42.867
Local Time: 5:10 PM GMT (17:10 GMT) Lon: -80.55
Time Zone: GMT Elev: 761 ft

Show me the last for .
Show Decoded

2018-01-16 16:00 METAR CXDI 161600Z AUTO 23005KT M07/M10 RMK AO1 SOG 04 2011 SLP294 T10651098 =
2018-01-16 15:00 METAR CXDI 161500Z AUTO 24003KT M06/M09 RMK AO1 SOG 03 1011 SLP290 T10551092 =
2018-01-16 14:00 METAR CXDI 161400Z AUTO 22003KT M07/M08 RMK AO1 SOG 04 1015 SLP287 T10691076 =
2018-01-16 13:00 METAR CXDI 161300Z AUTO 21001KT M08/M09 RMK AO1 SOG 03 3014 SLP283 T10801087 =
2018-01-16 12:00 METAR CXDI 161200Z AUTO 21003KT M07/M08 RMK AO1 SOG 03 3014 SLP279 T10651081
                 50002 =
2018-01-16 11:00 METAR CXDI 161100Z AUTO 21002KT M08/M08 RMK AO1 SOG 03 2010 SLP272 T10761075
                 50002 =
2018-01-16 10:00 METAR CXDI 161000Z AUTO 24001KT M06/M07 RMK AO1 SOG 03 1012 SLP268 T10561070
                 50002 =
2018-01-16 09:00 METAR CXDI 160900Z AUTO 26003KT M05/M06 RMK AO1 SOG 03 2011 SLP264 T10521064
                 50002 =
2018-01-16 08:00 METAR CXDI 160800Z AUTO 24001KT M05/M06 RMK AO1 2PAST HR SOG 02 3008 SLP261
                 P0001 T10511059 50002 =
2018-01-16 07:00 METAR CXDI 160700Z AUTO 21001KT M07/M07 RMK AO1 SOG 04 5000 SLP256 T10651072 =
2018-01-16 06:00 METAR CXDI 160600Z AUTO 00000KT M06/M07 RMK AO1 SOG 03 6006 SLP253 T10621070
                 50016 =
2018-01-16 05:00 METAR CXDI 160500Z AUTO 06001KT M06/M07 RMK AO1 SOG 03 7009 SLP253 T10631071
                 50016 =
2018-01-16 04:00 METAR CXDI 160400Z AUTO 06002KT M07/M08 RMK AO1 2PAST HR SOG 02 8008 SLP257
                 P0001 T10671076 50016 =
2018-01-16 03:00 METAR CXDI 160300Z AUTO 08001KT M07/M08 RMK AO1 3PAST HR SOG 04 6009 SLP260
                 P0001 T10721083 50014 =
2018-01-16 02:00 METAR CXDI 160200Z AUTO 06001KT M07/M09 RMK AO1 5PAST HR SOG 03 8005 SLP264
                 P0002 T10741086 50011 =
2018-01-16 01:00 METAR CXDI 160100Z AUTO 08002KT M07/M09 RMK AO1 6PAST HR SOG 01 8005 SLP266
                 P0002 T10651087 50006 =
2018-01-16 00:00 METAR CXDI 160000Z AUTO 08002KT M08/M09 RMK AO1 5PAST HR SOG 01 5002 SLP270
                 P0002 T10771091 50012 =
2018-01-15 23:00 METAR CXDI 152300Z AUTO 09003KT M08/M09 RMK AO1 5PAST HR SOG 02 8002 SLP269
                 P0002 T10781094 50007 =
2018-01-15 22:00 METAR CXDI 152200Z AUTO 10003KT M07/M09 RMK AO1 2PAST HR 6006 SLP271 P0001
                 T10731089 50002 =
2018-01-15 21:00 METAR CXDI 152100Z AUTO 11005KT M07/M09 RMK AO1 SOG 00 5014 SLP272 T10721092 =
2018-01-15 20:00 METAR CXDI 152000Z AUTO 11005KT M07/M10 RMK AO1 SOG 00 6026 SLP270 T10711098 =
2018-01-15 19:00 METAR CXDI 151900Z AUTO 12006KT M07/M11 RMK AO1 SOG 00 6032 SLP276 T10731108 =
2018-01-15 18:00 METAR CXDI 151800Z AUTO 11006KT M07/M11 RMK AO1 SOG 00 8028 SLP286 T10721112 =

Support USWX by starting your Amazon purchase here.